Terminal Aerodrome Forecast
Issued by NWS

Home | Current Version | Previous Version | Text Only | Print | Product List | Glossary On
Versions: 1 2 3 4 5 6 7 8 9 10 11 12 13 14 15 16 17 18 19 20 21 22 23 24 25 26 27 28 29 30
000
FTUS41 KRNK 301740
TAFBCB
TAF
KBCB 301740Z 3018/0118 10003KT P6SM VCSH SCT015
      TEMPO 3018/3020 5SM SHRA OVC015
     FM302000 14004KT P6SM VCTS SCT020 BKN040CB
     FM010000 VRB03KT P6SM BKN025
     FM010900 00000KT 4SM BR SCT004
     FM011500 20004KT P6SM SCT035=

USA.gov is the U.S. government's official web portal to all federal, state and local government web resources and services.